sensor_id;sensor_type;location;lat;lon;timestamp;P1;durP1;ratioP1;P2;durP2;ratioP2
46745;SDS011;32493;50.514;9.678;2023-02-01T00:01:14;10.40;;;4.20;;
46745;SDS011;32493;50.514;9.678;2023-02-01T00:03:19;7.28;;;3.50;;
46745;SDS011;32493;50.514;9.678;2023-02-01T00:05:27;6.82;;;3.70;;
46745;SDS011;32493;50.514;9.678;2023-02-01T00:07:32;7.03;;;3.92;;
46745;SDS011;32493;50.514;9.678;2023-02-01T00:09:37;9.73;;;3.78;;
46745;SDS011;32493;50.514;9.678;2023-02-01T00:11:42;6.80;;;3.50;;
46745;SDS011;32493;50.514;9.678;2023-02-01T00:13:47;15.35;;;3.65;;
46745;SDS011;32493;50.514;9.678;2023-02-01T00:15:53;6.78;;;2.70;;
46745;SDS011;32493;50.514;9.678;2023-02-01T00:17:58;10.38;;;3.13;;
46745;SDS011;32493;50.514;9.678;2023-02-01T00:20:06;5.85;;;2.38;;
46745;SDS011;32493;50.514;9.678;2023-02-01T00:22:16;9.45;;;3.50;;
46745;SDS011;32493;50.514;9.678;2023-02-01T00:24:21;10.05;;;3.72;;
46745;SDS011;32493;50.514;9.678;2023-02-01T00:26:30;8.70;;;3.55;;
46745;SDS011;32493;50.514;9.678;2023-02-01T00:28:39;11.20;;;3.78;;
46745;SDS011;32493;50.514;9.678;2023-02-01T00:30:44;12.48;;;3.83;;
46745;SDS011;32493;50.514;9.678;2023-02-01T00:32:49;9.23;;;3.08;;
46745;SDS011;32493;50.514;9.678;2023-02-01T00:34:54;11.00;;;4.03;;
46745;SDS011;32493;50.514;9.678;2023-02-01T00:36:59;12.00;;;3.38;;
46745;SDS011;32493;50.514;9.678;2023-02-01T00:39:07;7.03;;;2.88;;
46745;SDS011;32493;50.514;9.678;2023-02-01T00:41:13;8.93;;;3.47;;
46745;SDS011;32493;50.514;9.678;2023-02-01T00:43:21;6.95;;;2.60;;
46745;SDS011;32493;50.514;9.678;2023-02-01T00:45:26;14.30;;;3.38;;
46745;SDS011;32493;50.514;9.678;2023-02-01T00:47:31;13.57;;;3.50;;
46745;SDS011;32493;50.514;9.678;2023-02-01T00:49:37;14.13;;;3.58;;
46745;SDS011;32493;50.514;9.678;2023-02-01T00:51:42;9.65;;;3.80;;
46745;SDS011;32493;50.514;9.678;2023-02-01T00:53:47;10.48;;;2.85;;
46745;SDS011;32493;50.514;9.678;2023-02-01T00:55:55;9.60;;;4.32;;
46745;SDS011;32493;50.514;9.678;2023-02-01T00:58:00;5.35;;;2.53;;
46745;SDS011;32493;50.514;9.678;2023-02-01T01:00:08;10.95;;;3.00;;
46745;SDS011;32493;50.514;9.678;2023-02-01T01:02:15;6.95;;;2.85;;
46745;SDS011;32493;50.514;9.678;2023-02-01T01:04:21;9.10;;;3.33;;
46745;SDS011;32493;50.514;9.678;2023-02-01T01:06:27;10.68;;;3.40;;
46745;SDS011;32493;50.514;9.678;2023-02-01T01:08:37;9.93;;;3.63;;
46745;SDS011;32493;50.514;9.678;2023-02-01T01:10:43;9.32;;;3.05;;
46745;SDS011;32493;50.514;9.678;2023-02-01T01:12:51;9.48;;;3.00;;
46745;SDS011;32493;50.514;9.678;2023-02-01T01:14:56;12.43;;;3.45;;
46745;SDS011;32493;50.514;9.678;2023-02-01T01:17:01;9.07;;;3.72;;
46745;SDS011;32493;50.514;9.678;2023-02-01T01:19:06;12.68;;;3.67;;
46745;SDS011;32493;50.514;9.678;2023-02-01T01:21:12;9.65;;;4.47;;
46745;SDS011;32493;50.514;9.678;2023-02-01T01:23:19;7.90;;;3.97;;
46745;SDS011;32493;50.514;9.678;2023-02-01T01:25:24;9.85;;;3.30;;
46745;SDS011;32493;50.514;9.678;2023-02-01T01:27:30;5.85;;;3.28;;
46745;SDS011;32493;50.514;9.678;2023-02-01T01:29:37;8.27;;;3.30;;
46745;SDS011;32493;50.514;9.678;2023-02-01T01:31:42;4.15;;;2.47;;
46745;SDS011;32493;50.514;9.678;2023-02-01T01:33:48;8.45;;;3.92;;
46745;SDS011;32493;50.514;9.678;2023-02-01T01:35:56;9.05;;;3.22;;
46745;SDS011;32493;50.514;9.678;2023-02-01T01:38:01;6.93;;;4.38;;
46745;SDS011;32493;50.514;9.678;2023-02-01T01:40:08;7.22;;;4.15;;
46745;SDS011;32493;50.514;9.678;2023-02-01T01:42:15;10.65;;;4.70;;
46745;SDS011;32493;50.514;9.678;2023-02-01T01:47:16;11.57;;;4.60;;
46745;SDS011;32493;50.514;9.678;2023-02-01T01:49:21;11.52;;;5.40;;
46745;SDS011;32493;50.514;9.678;2023-02-01T01:51:30;14.45;;;5.78;;
46745;SDS011;32493;50.514;9.678;2023-02-01T01:53:42;10.23;;;4.50;;
46745;SDS011;32493;50.514;9.678;2023-02-01T01:55:55;13.35;;;5.18;;
46745;SDS011;32493;50.514;9.678;2023-02-01T01:58:02;11.45;;;5.68;;
46745;SDS011;32493;50.514;9.678;2023-02-01T02:00:11;15.68;;;5.25;;
46745;SDS011;32493;50.514;9.678;2023-02-01T02:02:23;12.30;;;5.40;;
46745;SDS011;32493;50.514;9.678;2023-02-01T02:04:28;16.80;;;4.70;;
46745;SDS011;32493;50.514;9.678;2023-02-01T02:06:36;8.32;;;4.07;;
46745;SDS011;32493;50.514;9.678;2023-02-01T02:08:49;7.90;;;3.88;;
46745;SDS011;32493;50.514;9.678;2023-02-01T02:10:54;13.02;;;5.75;;
46745;SDS011;32493;50.514;9.678;2023-02-01T02:13:06;15.65;;;5.93;;
46745;SDS011;32493;50.514;9.678;2023-02-01T02:15:11;10.68;;;5.18;;
46745;SDS011;32493;50.514;9.678;2023-02-01T02:17:25;11.18;;;5.65;;
46745;SDS011;32493;50.514;9.678;2023-02-01T02:22:48;18.27;;;6.25;;
46745;SDS011;32493;50.514;9.678;2023-02-01T02:28:47;11.82;;;4.93;;
46745;SDS011;32493;50.514;9.678;2023-02-01T02:31:23;14.40;;;6.18;;
46745;SDS011;32493;50.514;9.678;2023-02-01T02:33:54;11.57;;;5.77;;
46745;SDS011;32493;50.514;9.678;2023-02-01T02:36:09;13.40;;;5.50;;
46745;SDS011;32493;50.514;9.678;2023-02-01T02:38:23;16.98;;;6.13;;
46745;SDS011;32493;50.514;9.678;2023-02-01T02:40:42;18.48;;;5.80;;
46745;SDS011;32493;50.514;9.678;2023-02-01T02:42:56;14.40;;;6.80;;
46745;SDS011;32493;50.514;9.678;2023-02-01T02:45:24;14.02;;;4.95;;
46745;SDS011;32493;50.514;9.678;2023-02-01T02:47:52;15.73;;;5.55;;
46745;SDS011;32493;50.514;9.678;2023-02-01T02:50:08;16.88;;;5.90;;
46745;SDS011;32493;50.514;9.678;2023-02-01T02:52:32;16.05;;;6.10;;
46745;SDS011;32493;50.514;9.678;2023-02-01T02:54:57;15.90;;;5.97;;
46745;SDS011;32493;50.514;9.678;2023-02-01T02:57:06;14.60;;;7.03;;
46745;SDS011;32493;50.514;9.678;2023-02-01T02:59:30;9.85;;;3.78;;
46745;SDS011;32493;50.514;9.678;2023-02-01T03:01:49;10.73;;;4.03;;
46745;SDS011;32493;50.514;9.678;2023-02-01T03:04:08;15.70;;;6.07;;
46745;SDS011;32493;50.514;9.678;2023-02-01T03:06:24;16.58;;;5.68;;
46745;SDS011;32493;50.514;9.678;2023-02-01T03:10:37;3.35;;;2.50;;
46745;SDS011;32493;50.514;9.678;2023-02-01T03:12:53;8.82;;;3.67;;
46745;SDS011;32493;50.514;9.678;2023-02-01T03:15:05;14.43;;;6.53;;
46745;SDS011;32493;50.514;9.678;2023-02-01T03:17:18;11.05;;;4.18;;
46745;SDS011;32493;50.514;9.678;2023-02-01T03:19:33;12.70;;;4.90;;
46745;SDS011;32493;50.514;9.678;2023-02-01T03:21:49;12.40;;;2.83;;
46745;SDS011;32493;50.514;9.678;2023-02-01T03:23:59;12.77;;;4.30;;
46745;SDS011;32493;50.514;9.678;2023-02-01T03:26:10;13.98;;;3.95;;
46745;SDS011;32493;50.514;9.678;2023-02-01T03:28:19;6.25;;;3.13;;
46745;SDS011;32493;50.514;9.678;2023-02-01T03:30:31;6.88;;;3.05;;
46745;SDS011;32493;50.514;9.678;2023-02-01T03:32:40;11.52;;;3.47;;
46745;SDS011;32493;50.514;9.678;2023-02-01T03:35:07;12.02;;;5.15;;
46745;SDS011;32493;50.514;9.678;2023-02-01T03:37:17;10.00;;;3.35;;
46745;SDS011;32493;50.514;9.678;2023-02-01T03:39:29;9.68;;;3.72;;
46745;SDS011;32493;50.514;9.678;2023-02-01T03:41:40;13.25;;;3.65;;
46745;SDS011;32493;50.514;9.678;2023-02-01T03:43:51;7.82;;;3.35;;
46745;SDS011;32493;50.514;9.678;2023-02-01T03:46:01;10.55;;;3.20;;
46745;SDS011;32493;50.514;9.678;2023-02-01T03:48:13;4.45;;;2.55;;
46745;SDS011;32493;50.514;9.678;2023-02-01T03:50:22;11.25;;;3.47;;
46745;SDS011;32493;50.514;9.678;2023-02-01T03:52:33;8.40;;;2.55;;
46745;SDS011;32493;50.514;9.678;2023-02-01T03:54:45;11.80;;;3.65;;
46745;SDS011;32493;50.514;9.678;2023-02-01T03:56:52;9.70;;;3.45;;
46745;SDS011;32493;50.514;9.678;2023-02-01T03:59:01;7.07;;;2.83;;
46745;SDS011;32493;50.514;9.678;2023-02-01T04:01:09;10.30;;;3.20;;
46745;SDS011;32493;50.514;9.678;2023-02-01T04:03:14;8.07;;;3.25;;
46745;SDS011;32493;50.514;9.678;2023-02-01T04:05:20;12.23;;;3.42;;
46745;SDS011;32493;50.514;9.678;2023-02-01T04:07:36;5.57;;;3.67;;
46745;SDS011;32493;50.514;9.678;2023-02-01T04:09:42;9.77;;;2.80;;
46745;SDS011;32493;50.514;9.678;2023-02-01T04:11:47;11.57;;;3.50;;
46745;SDS011;32493;50.514;9.678;2023-02-01T04:13:52;9.85;;;3.28;;
46745;SDS011;32493;50.514;9.678;2023-02-01T04:15:57;7.35;;;2.60;;
46745;SDS011;32493;50.514;9.678;2023-02-01T04:18:03;11.05;;;3.70;;
46745;SDS011;32493;50.514;9.678;2023-02-01T04:20:09;13.70;;;3.70;;
46745;SDS011;32493;50.514;9.678;2023-02-01T04:22:15;15.10;;;4.97;;
46745;SDS011;32493;50.514;9.678;2023-02-01T04:24:23;5.30;;;2.85;;
46745;SDS011;32493;50.514;9.678;2023-02-01T04:28:34;11.13;;;3.47;;
46745;SDS011;32493;50.514;9.678;2023-02-01T04:30:39;9.10;;;3.17;;
46745;SDS011;32493;50.514;9.678;2023-02-01T04:32:44;10.88;;;4.32;;
46745;SDS011;32493;50.514;9.678;2023-02-01T04:34:49;18.48;;;4.35;;
46745;SDS011;32493;50.514;9.678;2023-02-01T04:36:55;8.82;;;3.47;;
46745;SDS011;32493;50.514;9.678;2023-02-01T04:39:00;7.00;;;2.72;;
46745;SDS011;32493;50.514;9.678;2023-02-01T04:41:10;7.93;;;2.50;;
46745;SDS011;32493;50.514;9.678;2023-02-01T04:43:15;13.00;;;4.10;;
46745;SDS011;32493;50.514;9.678;2023-02-01T04:45:21;7.85;;;3.15;;
46745;SDS011;32493;50.514;9.678;2023-02-01T04:47:26;10.85;;;3.33;;
46745;SDS011;32493;50.514;9.678;2023-02-01T04:49:31;5.65;;;2.25;;
46745;SDS011;32493;50.514;9.678;2023-02-01T04:51:36;10.70;;;3.88;;
46745;SDS011;32493;50.514;9.678;2023-02-01T04:53:42;15.40;;;5.10;;
46745;SDS011;32493;50.514;9.678;2023-02-01T04:55:48;8.35;;;3.40;;
46745;SDS011;32493;50.514;9.678;2023-02-01T04:57:56;9.10;;;2.88;;
46745;SDS011;32493;50.514;9.678;2023-02-01T05:00:02;11.45;;;4.32;;
46745;SDS011;32493;50.514;9.678;2023-02-01T05:02:12;9.50;;;2.28;;
46745;SDS011;32493;50.514;9.678;2023-02-01T05:04:17;12.82;;;3.40;;
46745;SDS011;32493;50.514;9.678;2023-02-01T05:06:22;14.13;;;4.03;;
46745;SDS011;32493;50.514;9.678;2023-02-01T05:08:27;12.13;;;3.20;;
46745;SDS011;32493;50.514;9.678;2023-02-01T05:10:32;8.45;;;3.03;;
46745;SDS011;32493;50.514;9.678;2023-02-01T05:12:37;7.28;;;3.05;;
46745;SDS011;32493;50.514;9.678;2023-02-01T05:14:57;11.18;;;2.60;;
46745;SDS011;32493;50.514;9.678;2023-02-01T05:17:02;16.83;;;4.10;;
46745;SDS011;32493;50.514;9.678;2023-02-01T05:19:07;10.40;;;2.75;;
46745;SDS011;32493;50.514;9.678;2023-02-01T05:21:13;9.98;;;2.72;;
46745;SDS011;32493;50.514;9.678;2023-02-01T05:23:18;5.70;;;2.35;;
46745;SDS011;32493;50.514;9.678;2023-02-01T05:25:23;7.15;;;1.75;;
46745;SDS011;32493;50.514;9.678;2023-02-01T05:27:29;16.60;;;3.85;;
46745;SDS011;32493;50.514;9.678;2023-02-01T05:29:36;13.05;;;3.25;;
46745;SDS011;32493;50.514;9.678;2023-02-01T05:31:43;13.40;;;3.60;;
46745;SDS011;32493;50.514;9.678;2023-02-01T05:33:50;13.30;;;2.08;;
46745;SDS011;32493;50.514;9.678;2023-02-01T05:35:55;10.85;;;2.67;;
46745;SDS011;32493;50.514;9.678;2023-02-01T05:38:00;13.63;;;3.10;;
46745;SDS011;32493;50.514;9.678;2023-02-01T05:40:06;5.45;;;2.05;;
46745;SDS011;32493;50.514;9.678;2023-02-01T05:42:12;16.45;;;3.05;;
46745;SDS011;32493;50.514;9.678;2023-02-01T05:44:18;17.00;;;3.65;;
46745;SDS011;32493;50.514;9.678;2023-02-01T05:46:23;11.52;;;2.80;;
46745;SDS011;32493;50.514;9.678;2023-02-01T05:48:31;9.93;;;2.97;;
46745;SDS011;32493;50.514;9.678;2023-02-01T05:50:38;12.57;;;2.60;;
46745;SDS011;32493;50.514;9.678;2023-02-01T05:52:44;9.25;;;1.60;;
46745;SDS011;32493;50.514;9.678;2023-02-01T05:54:49;13.35;;;3.03;;
46745;SDS011;32493;50.514;9.678;2023-02-01T05:56:54;4.03;;;1.58;;
46745;SDS011;32493;50.514;9.678;2023-02-01T05:59:00;6.50;;;2.10;;
46745;SDS011;32493;50.514;9.678;2023-02-01T06:01:05;13.07;;;3.78;;
46745;SDS011;32493;50.514;9.678;2023-02-01T06:03:11;19.35;;;2.60;;
46745;SDS011;32493;50.514;9.678;2023-02-01T06:05:18;12.95;;;2.67;;
46745;SDS011;32493;50.514;9.678;2023-02-01T06:09:30;11.77;;;2.30;;
46745;SDS011;32493;50.514;9.678;2023-02-01T06:11:36;10.23;;;2.78;;
46745;SDS011;32493;50.514;9.678;2023-02-01T06:13:42;14.50;;;2.97;;
46745;SDS011;32493;50.514;9.678;2023-02-01T06:15:47;13.98;;;2.55;;
46745;SDS011;32493;50.514;9.678;2023-02-01T06:17:52;10.70;;;3.00;;
46745;SDS011;32493;50.514;9.678;2023-02-01T06:19:57;13.18;;;3.63;;
46745;SDS011;32493;50.514;9.678;2023-02-01T06:22:06;10.90;;;2.75;;
46745;SDS011;32493;50.514;9.678;2023-02-01T06:24:11;11.40;;;2.70;;
46745;SDS011;32493;50.514;9.678;2023-02-01T06:26:16;12.18;;;3.38;;
46745;SDS011;32493;50.514;9.678;2023-02-01T06:28:22;20.67;;;3.92;;
46745;SDS011;32493;50.514;9.678;2023-02-01T06:30:27;8.38;;;2.40;;
46745;SDS011;32493;50.514;9.678;2023-02-01T06:32:33;12.20;;;2.13;;
46745;SDS011;32493;50.514;9.678;2023-02-01T06:34:38;10.32;;;2.30;;
46745;SDS011;32493;50.514;9.678;2023-02-01T06:36:43;16.02;;;3.00;;
46745;SDS011;32493;50.514;9.678;2023-02-01T06:38:51;6.97;;;2.22;;
46745;SDS011;32493;50.514;9.678;2023-02-01T06:40:57;14.10;;;2.90;;
46745;SDS011;32493;50.514;9.678;2023-02-01T06:43:03;8.70;;;1.73;;
46745;SDS011;32493;50.514;9.678;2023-02-01T06:45:09;14.25;;;2.80;;
46745;SDS011;32493;50.514;9.678;2023-02-01T06:47:15;13.50;;;2.92;;
46745;SDS011;32493;50.514;9.678;2023-02-01T06:49:20;13.95;;;3.03;;
46745;SDS011;32493;50.514;9.678;2023-02-01T06:51:27;13.00;;;4.20;;
46745;SDS011;32493;50.514;9.678;2023-02-01T06:53:32;14.27;;;3.10;;
46745;SDS011;32493;50.514;9.678;2023-02-01T06:55:40;8.18;;;1.65;;
46745;SDS011;32493;50.514;9.678;2023-02-01T06:59:51;17.50;;;2.38;;
46745;SDS011;32493;50.514;9.678;2023-02-01T07:01:56;13.07;;;2.15;;
46745;SDS011;32493;50.514;9.678;2023-02-01T07:04:02;10.18;;;2.08;;
46745;SDS011;32493;50.514;9.678;2023-02-01T07:06:08;13.32;;;2.42;;
46745;SDS011;32493;50.514;9.678;2023-02-01T07:08:14;9.13;;;2.63;;
46745;SDS011;32493;50.514;9.678;2023-02-01T07:10:19;9.60;;;3.17;;
46745;SDS011;32493;50.514;9.678;2023-02-01T07:12:27;5.82;;;1.58;;
46745;SDS011;32493;50.514;9.678;2023-02-01T07:14:32;19.98;;;3.20;;
46745;SDS011;32493;50.514;9.678;2023-02-01T07:16:38;21.00;;;2.63;;
46745;SDS011;32493;50.514;9.678;2023-02-01T07:18:45;9.93;;;2.55;;
46745;SDS011;32493;50.514;9.678;2023-02-01T07:20:50;13.00;;;2.70;;
46745;SDS011;32493;50.514;9.678;2023-02-01T07:22:56;7.95;;;2.53;;
46745;SDS011;32493;50.514;9.678;2023-02-01T07:25:01;13.52;;;2.53;;
46745;SDS011;32493;50.514;9.678;2023-02-01T07:27:07;6.05;;;2.63;;
46745;SDS011;32493;50.514;9.678;2023-02-01T07:29:17;12.02;;;2.45;;
46745;SDS011;32493;50.514;9.678;2023-02-01T07:31:22;9.75;;;2.58;;
46745;SDS011;32493;50.514;9.678;2023-02-01T07:33:30;6.00;;;2.13;;
46745;SDS011;32493;50.514;9.678;2023-02-01T07:35:36;13.90;;;2.80;;
46745;SDS011;32493;50.514;9.678;2023-02-01T07:37:41;13.48;;;2.97;;
46745;SDS011;32493;50.514;9.678;2023-02-01T07:39:46;18.80;;;3.47;;
46745;SDS011;32493;50.514;9.678;2023-02-01T07:41:52;6.18;;;1.83;;
46745;SDS011;32493;50.514;9.678;2023-02-01T07:43:58;17.33;;;3.00;;
46745;SDS011;32493;50.514;9.678;2023-02-01T07:46:06;16.67;;;2.75;;
46745;SDS011;32493;50.514;9.678;2023-02-01T07:48:11;10.20;;;2.15;;
46745;SDS011;32493;50.514;9.678;2023-02-01T07:50:17;6.65;;;1.95;;
46745;SDS011;32493;50.514;9.678;2023-02-01T07:52:23;12.90;;;2.63;;
46745;SDS011;32493;50.514;9.678;2023-02-01T07:54:31;8.50;;;2.13;;
46745;SDS011;32493;50.514;9.678;2023-02-01T07:56:36;5.07;;;1.70;;
46745;SDS011;32493;50.514;9.678;2023-02-01T07:58:41;15.57;;;2.03;;
46745;SDS011;32493;50.514;9.678;2023-02-01T08:00:47;6.78;;;1.95;;
46745;SDS011;32493;50.514;9.678;2023-02-01T08:03:07;16.02;;;3.25;;
46745;SDS011;32493;50.514;9.678;2023-02-01T08:05:13;15.27;;;4.00;;
46745;SDS011;32493;50.514;9.678;2023-02-01T08:07:19;10.75;;;2.28;;
46745;SDS011;32493;50.514;9.678;2023-02-01T08:09:24;10.07;;;2.45;;
46745;SDS011;32493;50.514;9.678;2023-02-01T08:11:29;13.77;;;3.35;;
46745;SDS011;32493;50.514;9.678;2023-02-01T08:13:35;10.38;;;2.70;;
46745;SDS011;32493;50.514;9.678;2023-02-01T08:15:40;9.75;;;2.63;;
46745;SDS011;32493;50.514;9.678;2023-02-01T08:17:46;10.60;;;2.78;;
46745;SDS011;32493;50.514;9.678;2023-02-01T08:19:54;14.43;;;2.45;;
46745;SDS011;32493;50.514;9.678;2023-02-01T08:24:09;8.77;;;2.35;;
46745;SDS011;32493;50.514;9.678;2023-02-01T08:26:15;7.25;;;1.50;;
46745;SDS011;32493;50.514;9.678;2023-02-01T08:28:23;9.02;;;2.47;;
46745;SDS011;32493;50.514;9.678;2023-02-01T08:30:28;13.98;;;3.22;;
46745;SDS011;32493;50.514;9.678;2023-02-01T08:32:34;6.47;;;1.42;;
46745;SDS011;32493;50.514;9.678;2023-02-01T08:34:39;10.30;;;1.35;;
46745;SDS011;32493;50.514;9.678;2023-02-01T08:36:47;13.25;;;2.90;;
46745;SDS011;32493;50.514;9.678;2023-02-01T08:38:53;5.80;;;2.13;;
46745;SDS011;32493;50.514;9.678;2023-02-01T08:41:03;7.85;;;2.50;;
46745;SDS011;32493;50.514;9.678;2023-02-01T08:43:09;8.73;;;2.08;;
46745;SDS011;32493;50.514;9.678;2023-02-01T08:45:16;7.93;;;2.35;;
46745;SDS011;32493;50.514;9.678;2023-02-01T08:47:23;11.30;;;2.95;;
46745;SDS011;32493;50.514;9.678;2023-02-01T08:49:28;8.43;;;1.98;;
46745;SDS011;32493;50.514;9.678;2023-02-01T08:51:33;10.88;;;2.22;;
46745;SDS011;32493;50.514;9.678;2023-02-01T08:53:41;12.45;;;2.88;;
46745;SDS011;32493;50.514;9.678;2023-02-01T08:55:47;12.25;;;2.67;;
46745;SDS011;32493;50.514;9.678;2023-02-01T08:57:52;16.05;;;3.72;;
46745;SDS011;32493;50.514;9.678;2023-02-01T08:59:57;14.70;;;3.70;;
46745;SDS011;32493;50.514;9.678;2023-02-01T09:02:05;12.68;;;3.00;;
46745;SDS011;32493;50.514;9.678;2023-02-01T09:04:10;18.63;;;4.05;;
46745;SDS011;32493;50.514;9.678;2023-02-01T09:06:15;9.25;;;1.85;;
46745;SDS011;32493;50.514;9.678;2023-02-01T09:08:20;11.25;;;1.45;;
46745;SDS011;32493;50.514;9.678;2023-02-01T09:10:28;13.77;;;2.53;;
46745;SDS011;32493;50.514;9.678;2023-02-01T09:12:36;19.55;;;3.28;;
46745;SDS011;32493;50.514;9.678;2023-02-01T09:14:41;7.80;;;2.03;;
46745;SDS011;32493;50.514;9.678;2023-02-01T09:16:46;12.13;;;2.47;;
46745;SDS011;32493;50.514;9.678;2023-02-01T09:18:52;11.00;;;2.72;;
46745;SDS011;32493;50.514;9.678;2023-02-01T09:21:17;13.25;;;3.22;;
46745;SDS011;32493;50.514;9.678;2023-02-01T09:23:23;20.40;;;3.05;;
46745;SDS011;32493;50.514;9.678;2023-02-01T09:25:30;11.00;;;2.65;;
46745;SDS011;32493;50.514;9.678;2023-02-01T09:29:41;11.48;;;2.85;;
46745;SDS011;32493;50.514;9.678;2023-02-01T09:31:47;16.67;;;3.95;;
46745;SDS011;32493;50.514;9.678;2023-02-01T09:34:03;7.40;;;2.63;;
46745;SDS011;32493;50.514;9.678;2023-02-01T09:36:09;11.63;;;2.63;;
46745;SDS011;32493;50.514;9.678;2023-02-01T09:38:17;10.77;;;3.45;;
46745;SDS011;32493;50.514;9.678;2023-02-01T09:40:22;14.00;;;3.03;;
46745;SDS011;32493;50.514;9.678;2023-02-01T09:42:36;16.92;;;3.70;;
46745;SDS011;32493;50.514;9.678;2023-02-01T09:45:03;8.68;;;2.97;;
46745;SDS011;32493;50.514;9.678;2023-02-01T09:47:22;11.18;;;3.17;;
46745;SDS011;32493;50.514;9.678;2023-02-01T09:49:31;10.73;;;3.10;;
46745;SDS011;32493;50.514;9.678;2023-02-01T09:51:45;12.63;;;3.17;;
46745;SDS011;32493;50.514;9.678;2023-02-01T09:53:56;8.63;;;2.92;;
46745;SDS011;32493;50.514;9.678;2023-02-01T09:56:10;11.68;;;3.28;;
46745;SDS011;32493;50.514;9.678;2023-02-01T09:58:22;12.38;;;3.22;;
46745;SDS011;32493;50.514;9.678;2023-02-01T10:00:35;17.15;;;2.90;;
46745;SDS011;32493;50.514;9.678;2023-02-01T10:02:43;8.40;;;2.17;;
46745;SDS011;32493;50.514;9.678;2023-02-01T10:04:49;9.57;;;2.03;;
46745;SDS011;32493;50.514;9.678;2023-02-01T10:07:01;9.85;;;2.58;;
46745;SDS011;32493;50.514;9.678;2023-02-01T10:09:31;11.60;;;3.05;;
46745;SDS011;32493;50.514;9.678;2023-02-01T10:11:52;16.48;;;3.50;;
46745;SDS011;32493;50.514;9.678;2023-02-01T10:14:28;8.85;;;1.98;;
46745;SDS011;32493;50.514;9.678;2023-02-01T10:16:57;9.03;;;2.83;;
46745;SDS011;32493;50.514;9.678;2023-02-01T10:21:48;12.30;;;3.25;;
46745;SDS011;32493;50.514;9.678;2023-02-01T10:24:08;11.05;;;2.92;;
46745;SDS011;32493;50.514;9.678;2023-02-01T10:26:32;8.45;;;2.28;;
46745;SDS011;32493;50.514;9.678;2023-02-01T10:28:41;21.35;;;3.22;;
46745;SDS011;32493;50.514;9.678;2023-02-01T10:30:53;20.27;;;3.10;;
46745;SDS011;32493;50.514;9.678;2023-02-01T10:33:07;11.15;;;2.60;;
46745;SDS011;32493;50.514;9.678;2023-02-01T10:35:22;11.45;;;3.08;;
46745;SDS011;32493;50.514;9.678;2023-02-01T10:37:34;20.17;;;3.35;;
46745;SDS011;32493;50.514;9.678;2023-02-01T10:39:41;14.07;;;3.30;;
46745;SDS011;32493;50.514;9.678;2023-02-01T10:41:46;13.98;;;2.67;;
46745;SDS011;32493;50.514;9.678;2023-02-01T10:43:53;13.43;;;2.78;;
46745;SDS011;32493;50.514;9.678;2023-02-01T10:46:03;14.65;;;3.65;;
46745;SDS011;32493;50.514;9.678;2023-02-01T10:48:09;11.77;;;3.00;;
46745;SDS011;32493;50.514;9.678;2023-02-01T10:50:16;10.38;;;2.33;;
46745;SDS011;32493;50.514;9.678;2023-02-01T10:52:34;15.65;;;3.25;;
46745;SDS011;32493;50.514;9.678;2023-02-01T10:54:46;13.73;;;2.83;;
46745;SDS011;32493;50.514;9.678;2023-02-01T10:56:51;10.98;;;2.55;;
46745;SDS011;32493;50.514;9.678;2023-02-01T10:58:59;11.77;;;3.00;;
46745;SDS011;32493;50.514;9.678;2023-02-01T11:01:09;15.35;;;3.03;;
46745;SDS011;32493;50.514;9.678;2023-02-01T11:05:43;16.48;;;2.95;;
46745;SDS011;32493;50.514;9.678;2023-02-01T11:07:50;11.10;;;2.60;;
46745;SDS011;32493;50.514;9.678;2023-02-01T11:10:01;11.85;;;2.42;;
46745;SDS011;32493;50.514;9.678;2023-02-01T11:12:20;9.43;;;1.95;;
46745;SDS011;32493;50.514;9.678;2023-02-01T11:14:33;10.93;;;2.17;;
46745;SDS011;32493;50.514;9.678;2023-02-01T11:16:49;13.52;;;2.63;;
46745;SDS011;32493;50.514;9.678;2023-02-01T11:18:57;10.18;;;2.00;;
46745;SDS011;32493;50.514;9.678;2023-02-01T11:21:03;11.35;;;1.60;;
46745;SDS011;32493;50.514;9.678;2023-02-01T11:23:13;11.10;;;2.30;;
46745;SDS011;32493;50.514;9.678;2023-02-01T11:25:20;12.90;;;2.45;;
46745;SDS011;32493;50.514;9.678;2023-02-01T11:27:27;10.40;;;2.83;;
46745;SDS011;32493;50.514;9.678;2023-02-01T11:29:34;14.77;;;2.50;;
46745;SDS011;32493;50.514;9.678;2023-02-01T11:31:43;8.50;;;1.98;;
46745;SDS011;32493;50.514;9.678;2023-02-01T11:33:54;3.60;;;1.50;;
46745;SDS011;32493;50.514;9.678;2023-02-01T11:36:06;20.70;;;3.03;;
46745;SDS011;32493;50.514;9.678;2023-02-01T11:38:17;14.15;;;2.25;;
46745;SDS011;32493;50.514;9.678;2023-02-01T11:40:33;10.07;;;1.85;;
46745;SDS011;32493;50.514;9.678;2023-02-01T11:42:52;14.25;;;3.10;;
46745;SDS011;32493;50.514;9.678;2023-02-01T11:45:15;13.23;;;2.80;;
46745;SDS011;32493;50.514;9.678;2023-02-01T11:47:25;14.65;;;2.90;;
46745;SDS011;32493;50.514;9.678;2023-02-01T11:49:35;8.82;;;1.73;;
46745;SDS011;32493;50.514;9.678;2023-02-01T11:51:43;7.95;;;2.20;;
46745;SDS011;32493;50.514;9.678;2023-02-01T11:54:04;12.38;;;2.33;;
46745;SDS011;32493;50.514;9.678;2023-02-01T11:56:23;10.23;;;2.53;;
46745;SDS011;32493;50.514;9.678;2023-02-01T12:01:29;14.23;;;2.67;;
46745;SDS011;32493;50.514;9.678;2023-02-01T12:03:56;11.25;;;2.22;;
46745;SDS011;32493;50.514;9.678;2023-02-01T12:06:31;14.52;;;2.45;;
46745;SDS011;32493;50.514;9.678;2023-02-01T12:09:01;7.68;;;1.55;;
46745;SDS011;32493;50.514;9.678;2023-02-01T12:11:28;11.35;;;1.33;;
46745;SDS011;32493;50.514;9.678;2023-02-01T12:13:48;11.52;;;2.70;;
46745;SDS011;32493;50.514;9.678;2023-02-01T12:16:02;12.90;;;2.17;;
46745;SDS011;32493;50.514;9.678;2023-02-01T12:18:27;6.15;;;1.45;;
46745;SDS011;32493;50.514;9.678;2023-02-01T12:21:06;13.70;;;2.40;;
46745;SDS011;32493;50.514;9.678;2023-02-01T12:23:33;7.82;;;1.40;;
46745;SDS011;32493;50.514;9.678;2023-02-01T12:26:06;7.38;;;1.65;;
46745;SDS011;32493;50.514;9.678;2023-02-01T12:28:32;13.07;;;2.22;;
46745;SDS011;32493;50.514;9.678;2023-02-01T12:31:31;8.60;;;2.07;;
46745;SDS011;32493;50.514;9.678;2023-02-01T12:34:01;8.75;;;2.13;;
46745;SDS011;32493;50.514;9.678;2023-02-01T12:36:37;9.68;;;1.70;;
46745;SDS011;32493;50.514;9.678;2023-02-01T12:38:57;8.32;;;1.90;;
46745;SDS011;32493;50.514;9.678;2023-02-01T12:41:19;10.30;;;1.60;;
46745;SDS011;32493;50.514;9.678;2023-02-01T12:43:37;7.53;;;1.73;;
46745;SDS011;32493;50.514;9.678;2023-02-01T12:45:47;6.80;;;1.35;;
46745;SDS011;32493;50.514;9.678;2023-02-01T12:47:59;17.15;;;2.28;;
46745;SDS011;32493;50.514;9.678;2023-02-01T12:50:27;10.57;;;2.10;;
46745;SDS011;32493;50.514;9.678;2023-02-01T12:52:37;6.13;;;1.27;;
46745;SDS011;32493;50.514;9.678;2023-02-01T12:54:52;7.97;;;1.58;;
46745;SDS011;32493;50.514;9.678;2023-02-01T12:57:06;9.02;;;1.70;;
46745;SDS011;32493;50.514;9.678;2023-02-01T12:59:20;9.15;;;1.90;;
46745;SDS011;32493;50.514;9.678;2023-02-01T13:01:32;12.98;;;1.83;;
46745;SDS011;32493;50.514;9.678;2023-02-01T13:03:50;5.55;;;1.35;;
46745;SDS011;32493;50.514;9.678;2023-02-01T13:06:09;12.00;;;1.60;;
46745;SDS011;32493;50.514;9.678;2023-02-01T13:08:21;6.28;;;1.77;;
46745;SDS011;32493;50.514;9.678;2023-02-01T13:10:33;10.27;;;1.90;;
46745;SDS011;32493;50.514;9.678;2023-02-01T13:12:44;4.15;;;1.63;;
46745;SDS011;32493;50.514;9.678;2023-02-01T13:15:00;8.20;;;1.88;;
46745;SDS011;32493;50.514;9.678;2023-02-01T13:17:10;9.98;;;2.03;;
46745;SDS011;32493;50.514;9.678;2023-02-01T13:19:20;10.27;;;1.58;;
46745;SDS011;32493;50.514;9.678;2023-02-01T13:21:32;12.23;;;2.75;;
46745;SDS011;32493;50.514;9.678;2023-02-01T13:23:43;5.80;;;1.00;;
46745;SDS011;32493;50.514;9.678;2023-02-01T13:25:54;12.15;;;1.60;;